sensor_id;sensor_type;location;lat;lon;timestamp;P1;durP1;ratioP1;P2;durP2;ratioP2
51806;SDS011;37865;51.304;9.536;2023-07-31T00:00:11;5.32;;;1.75;;
51806;SDS011;37865;51.304;9.536;2023-07-31T00:02:37;7.43;;;2.05;;
51806;SDS011;37865;51.304;9.536;2023-07-31T00:05:03;2.70;;;1.63;;
51806;SDS011;37865;51.304;9.536;2023-07-31T00:07:29;2.30;;;2.10;;
51806;SDS011;37865;51.304;9.536;2023-07-31T00:09:54;2.25;;;1.08;;
51806;SDS011;37865;51.304;9.536;2023-07-31T00:12:21;4.47;;;2.10;;
51806;SDS011;37865;51.304;9.536;2023-07-31T00:14:47;3.95;;;2.35;;
51806;SDS011;37865;51.304;9.536;2023-07-31T00:17:12;8.38;;;2.53;;
51806;SDS011;37865;51.304;9.536;2023-07-31T00:19:37;5.40;;;2.22;;
51806;SDS011;37865;51.304;9.536;2023-07-31T00:22:03;9.90;;;1.75;;
51806;SDS011;37865;51.304;9.536;2023-07-31T00:24:28;2.17;;;1.25;;
51806;SDS011;37865;51.304;9.536;2023-07-31T00:26:54;4.10;;;2.15;;
51806;SDS011;37865;51.304;9.536;2023-07-31T00:29:19;3.13;;;1.55;;
51806;SDS011;37865;51.304;9.536;2023-07-31T00:31:44;5.25;;;1.67;;
51806;SDS011;37865;51.304;9.536;2023-07-31T00:34:09;4.90;;;2.63;;
51806;SDS011;37865;51.304;9.536;2023-07-31T00:36:35;5.55;;;2.15;;
51806;SDS011;37865;51.304;9.536;2023-07-31T00:39:00;8.18;;;2.05;;
51806;SDS011;37865;51.304;9.536;2023-07-31T00:41:25;3.50;;;1.65;;
51806;SDS011;37865;51.304;9.536;2023-07-31T00:43:51;3.08;;;1.45;;
51806;SDS011;37865;51.304;9.536;2023-07-31T00:46:16;2.75;;;2.20;;
51806;SDS011;37865;51.304;9.536;2023-07-31T00:48:41;3.63;;;1.88;;
51806;SDS011;37865;51.304;9.536;2023-07-31T00:51:07;3.47;;;1.90;;
51806;SDS011;37865;51.304;9.536;2023-07-31T00:53:33;5.32;;;2.55;;
51806;SDS011;37865;51.304;9.536;2023-07-31T00:55:59;5.50;;;2.70;;
51806;SDS011;37865;51.304;9.536;2023-07-31T00:58:24;3.25;;;1.98;;
51806;SDS011;37865;51.304;9.536;2023-07-31T01:00:49;6.38;;;2.67;;
51806;SDS011;37865;51.304;9.536;2023-07-31T01:03:15;7.57;;;1.80;;
51806;SDS011;37865;51.304;9.536;2023-07-31T01:05:56;8.18;;;3.03;;
51806;SDS011;37865;51.304;9.536;2023-07-31T01:11:38;3.75;;;1.75;;
51806;SDS011;37865;51.304;9.536;2023-07-31T01:13:58;6.25;;;2.25;;
51806;SDS011;37865;51.304;9.536;2023-07-31T01:16:25;4.75;;;3.05;;
51806;SDS011;37865;51.304;9.536;2023-07-31T01:18:51;5.97;;;1.98;;
51806;SDS011;37865;51.304;9.536;2023-07-31T01:26:56;3.03;;;1.48;;
51806;SDS011;37865;51.304;9.536;2023-07-31T01:29:24;5.30;;;2.10;;
51806;SDS011;37865;51.304;9.536;2023-07-31T01:31:55;3.45;;;1.73;;
51806;SDS011;37865;51.304;9.536;2023-07-31T01:34:24;8.52;;;2.75;;
51806;SDS011;37865;51.304;9.536;2023-07-31T01:36:51;5.05;;;2.10;;
51806;SDS011;37865;51.304;9.536;2023-07-31T01:39:16;5.25;;;2.13;;
51806;SDS011;37865;51.304;9.536;2023-07-31T01:41:42;6.68;;;2.10;;
51806;SDS011;37865;51.304;9.536;2023-07-31T01:44:07;3.42;;;1.73;;
51806;SDS011;37865;51.304;9.536;2023-07-31T01:46:32;6.45;;;2.20;;
51806;SDS011;37865;51.304;9.536;2023-07-31T01:48:58;5.57;;;2.20;;
51806;SDS011;37865;51.304;9.536;2023-07-31T01:51:23;3.88;;;2.30;;
51806;SDS011;37865;51.304;9.536;2023-07-31T01:53:48;1.83;;;1.23;;
51806;SDS011;37865;51.304;9.536;2023-07-31T01:56:13;5.07;;;1.60;;
51806;SDS011;37865;51.304;9.536;2023-07-31T01:58:39;5.75;;;2.13;;
51806;SDS011;37865;51.304;9.536;2023-07-31T02:01:04;2.60;;;1.95;;
51806;SDS011;37865;51.304;9.536;2023-07-31T02:03:30;4.47;;;1.90;;
51806;SDS011;37865;51.304;9.536;2023-07-31T02:05:55;4.18;;;1.83;;
51806;SDS011;37865;51.304;9.536;2023-07-31T02:08:21;5.20;;;2.15;;
51806;SDS011;37865;51.304;9.536;2023-07-31T02:10:47;6.60;;;1.77;;
51806;SDS011;37865;51.304;9.536;2023-07-31T02:13:12;4.15;;;1.63;;
51806;SDS011;37865;51.304;9.536;2023-07-31T02:15:37;2.95;;;1.52;;
51806;SDS011;37865;51.304;9.536;2023-07-31T02:18:03;4.47;;;1.10;;
51806;SDS011;37865;51.304;9.536;2023-07-31T02:20:28;6.20;;;1.48;;
51806;SDS011;37865;51.304;9.536;2023-07-31T02:22:53;2.28;;;1.13;;
51806;SDS011;37865;51.304;9.536;2023-07-31T02:25:18;3.75;;;1.30;;
51806;SDS011;37865;51.304;9.536;2023-07-31T02:27:44;3.28;;;1.70;;
51806;SDS011;37865;51.304;9.536;2023-07-31T02:30:09;4.78;;;2.05;;
51806;SDS011;37865;51.304;9.536;2023-07-31T02:32:35;5.55;;;1.80;;
51806;SDS011;37865;51.304;9.536;2023-07-31T02:35:00;3.88;;;2.45;;
51806;SDS011;37865;51.304;9.536;2023-07-31T02:37:26;4.72;;;1.85;;
51806;SDS011;37865;51.304;9.536;2023-07-31T02:39:53;5.63;;;2.78;;
51806;SDS011;37865;51.304;9.536;2023-07-31T02:42:18;5.30;;;1.98;;
51806;SDS011;37865;51.304;9.536;2023-07-31T02:44:44;4.75;;;2.95;;
51806;SDS011;37865;51.304;9.536;2023-07-31T02:47:09;6.43;;;2.67;;
51806;SDS011;37865;51.304;9.536;2023-07-31T02:49:34;3.25;;;2.45;;
51806;SDS011;37865;51.304;9.536;2023-07-31T02:51:59;12.35;;;4.20;;
51806;SDS011;37865;51.304;9.536;2023-07-31T02:54:25;6.85;;;2.75;;
51806;SDS011;37865;51.304;9.536;2023-07-31T02:56:50;6.10;;;3.10;;
51806;SDS011;37865;51.304;9.536;2023-07-31T02:59:16;5.72;;;2.80;;
51806;SDS011;37865;51.304;9.536;2023-07-31T03:01:42;3.35;;;2.63;;
51806;SDS011;37865;51.304;9.536;2023-07-31T03:04:08;4.93;;;2.72;;
51806;SDS011;37865;51.304;9.536;2023-07-31T03:06:33;3.55;;;2.67;;
51806;SDS011;37865;51.304;9.536;2023-07-31T03:08:58;5.50;;;2.35;;
51806;SDS011;37865;51.304;9.536;2023-07-31T03:11:24;3.05;;;2.17;;
51806;SDS011;37865;51.304;9.536;2023-07-31T03:13:49;3.55;;;2.22;;
51806;SDS011;37865;51.304;9.536;2023-07-31T03:16:14;9.10;;;3.05;;
51806;SDS011;37865;51.304;9.536;2023-07-31T03:18:39;5.63;;;2.70;;
51806;SDS011;37865;51.304;9.536;2023-07-31T03:21:05;7.28;;;1.98;;
51806;SDS011;37865;51.304;9.536;2023-07-31T03:23:30;5.20;;;2.20;;
51806;SDS011;37865;51.304;9.536;2023-07-31T03:25:56;5.95;;;2.58;;
51806;SDS011;37865;51.304;9.536;2023-07-31T03:28:25;4.88;;;1.60;;
51806;SDS011;37865;51.304;9.536;2023-07-31T03:30:51;1.98;;;1.65;;
51806;SDS011;37865;51.304;9.536;2023-07-31T03:33:16;2.72;;;2.22;;
51806;SDS011;37865;51.304;9.536;2023-07-31T03:35:42;5.60;;;2.40;;
51806;SDS011;37865;51.304;9.536;2023-07-31T03:38:07;5.25;;;2.83;;
51806;SDS011;37865;51.304;9.536;2023-07-31T03:40:32;3.08;;;2.22;;
51806;SDS011;37865;51.304;9.536;2023-07-31T03:42:57;4.57;;;2.03;;
51806;SDS011;37865;51.304;9.536;2023-07-31T03:45:23;6.45;;;2.35;;
51806;SDS011;37865;51.304;9.536;2023-07-31T03:47:48;3.08;;;2.05;;
51806;SDS011;37865;51.304;9.536;2023-07-31T03:50:13;4.97;;;2.67;;
51806;SDS011;37865;51.304;9.536;2023-07-31T03:52:39;4.03;;;2.88;;
51806;SDS011;37865;51.304;9.536;2023-07-31T03:55:04;4.18;;;2.17;;
51806;SDS011;37865;51.304;9.536;2023-07-31T03:57:30;7.55;;;3.33;;
51806;SDS011;37865;51.304;9.536;2023-07-31T03:59:57;6.68;;;2.47;;
51806;SDS011;37865;51.304;9.536;2023-07-31T04:02:23;2.30;;;2.05;;
51806;SDS011;37865;51.304;9.536;2023-07-31T04:04:48;3.47;;;2.05;;
51806;SDS011;37865;51.304;9.536;2023-07-31T04:07:13;3.55;;;2.17;;
51806;SDS011;37865;51.304;9.536;2023-07-31T04:09:39;2.95;;;2.08;;
51806;SDS011;37865;51.304;9.536;2023-07-31T04:12:04;4.25;;;2.28;;
51806;SDS011;37865;51.304;9.536;2023-07-31T04:14:29;5.03;;;2.70;;
51806;SDS011;37865;51.304;9.536;2023-07-31T04:16:55;5.15;;;2.88;;
51806;SDS011;37865;51.304;9.536;2023-07-31T04:19:20;3.00;;;2.55;;
51806;SDS011;37865;51.304;9.536;2023-07-31T04:21:45;3.55;;;2.53;;
51806;SDS011;37865;51.304;9.536;2023-07-31T04:24:10;7.57;;;2.75;;
51806;SDS011;37865;51.304;9.536;2023-07-31T04:26:36;6.15;;;3.13;;
51806;SDS011;37865;51.304;9.536;2023-07-31T04:29:01;3.38;;;2.33;;
51806;SDS011;37865;51.304;9.536;2023-07-31T04:31:26;3.20;;;2.22;;
51806;SDS011;37865;51.304;9.536;2023-07-31T04:33:52;6.78;;;3.00;;
51806;SDS011;37865;51.304;9.536;2023-07-31T04:36:17;8.73;;;2.00;;
51806;SDS011;37865;51.304;9.536;2023-07-31T04:38:42;4.18;;;2.72;;
51806;SDS011;37865;51.304;9.536;2023-07-31T04:41:08;6.50;;;3.03;;
51806;SDS011;37865;51.304;9.536;2023-07-31T04:43:33;5.43;;;2.55;;
51806;SDS011;37865;51.304;9.536;2023-07-31T04:45:58;3.78;;;2.60;;
51806;SDS011;37865;51.304;9.536;2023-07-31T04:48:23;8.15;;;2.78;;
51806;SDS011;37865;51.304;9.536;2023-07-31T04:50:49;4.55;;;2.75;;
51806;SDS011;37865;51.304;9.536;2023-07-31T04:53:14;5.00;;;2.53;;
51806;SDS011;37865;51.304;9.536;2023-07-31T04:55:39;3.83;;;2.35;;
51806;SDS011;37865;51.304;9.536;2023-07-31T04:58:05;6.45;;;2.67;;
51806;SDS011;37865;51.304;9.536;2023-07-31T05:00:30;6.03;;;3.03;;
51806;SDS011;37865;51.304;9.536;2023-07-31T05:02:55;3.13;;;2.20;;
51806;SDS011;37865;51.304;9.536;2023-07-31T05:05:21;7.13;;;2.78;;
51806;SDS011;37865;51.304;9.536;2023-07-31T05:07:46;8.95;;;4.45;;
51806;SDS011;37865;51.304;9.536;2023-07-31T05:10:12;9.73;;;3.05;;
51806;SDS011;37865;51.304;9.536;2023-07-31T05:12:37;5.30;;;3.50;;
51806;SDS011;37865;51.304;9.536;2023-07-31T05:15:02;8.23;;;2.88;;
51806;SDS011;37865;51.304;9.536;2023-07-31T05:17:28;5.28;;;2.58;;
51806;SDS011;37865;51.304;9.536;2023-07-31T05:19:53;7.68;;;2.63;;
51806;SDS011;37865;51.304;9.536;2023-07-31T05:22:19;7.28;;;3.13;;
51806;SDS011;37865;51.304;9.536;2023-07-31T05:24:44;5.43;;;2.78;;
51806;SDS011;37865;51.304;9.536;2023-07-31T05:27:09;6.68;;;2.97;;
51806;SDS011;37865;51.304;9.536;2023-07-31T05:29:35;4.07;;;2.75;;
51806;SDS011;37865;51.304;9.536;2023-07-31T05:32:00;9.30;;;2.97;;
51806;SDS011;37865;51.304;9.536;2023-07-31T05:34:26;2.70;;;2.30;;
51806;SDS011;37865;51.304;9.536;2023-07-31T05:36:51;8.07;;;3.38;;
51806;SDS011;37865;51.304;9.536;2023-07-31T05:39:16;7.00;;;2.80;;
51806;SDS011;37865;51.304;9.536;2023-07-31T05:41:43;7.18;;;2.58;;
51806;SDS011;37865;51.304;9.536;2023-07-31T05:44:08;3.85;;;2.90;;
51806;SDS011;37865;51.304;9.536;2023-07-31T05:46:33;8.57;;;3.15;;
51806;SDS011;37865;51.304;9.536;2023-07-31T05:48:59;2.75;;;1.95;;
51806;SDS011;37865;51.304;9.536;2023-07-31T05:51:25;6.60;;;3.20;;
51806;SDS011;37865;51.304;9.536;2023-07-31T05:53:51;5.18;;;2.10;;
51806;SDS011;37865;51.304;9.536;2023-07-31T05:56:16;5.25;;;2.25;;
51806;SDS011;37865;51.304;9.536;2023-07-31T05:58:42;10.02;;;3.42;;
51806;SDS011;37865;51.304;9.536;2023-07-31T06:01:07;4.13;;;2.13;;
51806;SDS011;37865;51.304;9.536;2023-07-31T06:03:32;8.05;;;3.30;;
51806;SDS011;37865;51.304;9.536;2023-07-31T06:05:58;4.22;;;2.50;;
51806;SDS011;37865;51.304;9.536;2023-07-31T06:08:23;3.63;;;2.22;;
51806;SDS011;37865;51.304;9.536;2023-07-31T06:10:48;3.63;;;2.53;;
51806;SDS011;37865;51.304;9.536;2023-07-31T06:13:14;6.60;;;3.33;;
51806;SDS011;37865;51.304;9.536;2023-07-31T06:15:39;4.30;;;2.17;;
51806;SDS011;37865;51.304;9.536;2023-07-31T06:18:04;4.32;;;1.92;;
51806;SDS011;37865;51.304;9.536;2023-07-31T06:20:32;7.93;;;2.65;;
51806;SDS011;37865;51.304;9.536;2023-07-31T06:22:58;8.23;;;3.25;;
51806;SDS011;37865;51.304;9.536;2023-07-31T06:25:24;7.78;;;2.55;;
51806;SDS011;37865;51.304;9.536;2023-07-31T06:27:49;6.40;;;2.05;;
51806;SDS011;37865;51.304;9.536;2023-07-31T06:30:14;7.60;;;3.53;;
51806;SDS011;37865;51.304;9.536;2023-07-31T06:32:40;4.60;;;2.38;;
51806;SDS011;37865;51.304;9.536;2023-07-31T06:35:06;6.10;;;2.28;;
51806;SDS011;37865;51.304;9.536;2023-07-31T06:37:31;5.22;;;2.22;;
51806;SDS011;37865;51.304;9.536;2023-07-31T06:39:57;7.70;;;3.05;;
51806;SDS011;37865;51.304;9.536;2023-07-31T06:42:22;1.30;;;1.02;;
51806;SDS011;37865;51.304;9.536;2023-07-31T06:44:47;5.00;;;2.60;;
51806;SDS011;37865;51.304;9.536;2023-07-31T06:47:18;11.30;;;3.50;;
51806;SDS011;37865;51.304;9.536;2023-07-31T06:49:44;8.27;;;3.75;;
51806;SDS011;37865;51.304;9.536;2023-07-31T06:52:10;6.53;;;3.22;;
51806;SDS011;37865;51.304;9.536;2023-07-31T06:54:36;5.75;;;2.83;;
51806;SDS011;37865;51.304;9.536;2023-07-31T06:57:01;5.40;;;2.65;;
51806;SDS011;37865;51.304;9.536;2023-07-31T06:59:27;2.85;;;2.13;;
51806;SDS011;37865;51.304;9.536;2023-07-31T07:01:52;6.38;;;2.70;;
51806;SDS011;37865;51.304;9.536;2023-07-31T07:04:17;15.23;;;4.05;;
51806;SDS011;37865;51.304;9.536;2023-07-31T07:06:42;5.57;;;3.33;;
51806;SDS011;37865;51.304;9.536;2023-07-31T07:09:08;6.75;;;3.90;;
51806;SDS011;37865;51.304;9.536;2023-07-31T07:11:33;6.63;;;3.72;;
51806;SDS011;37865;51.304;9.536;2023-07-31T07:13:59;5.63;;;3.10;;
51806;SDS011;37865;51.304;9.536;2023-07-31T07:16:25;3.35;;;2.35;;
51806;SDS011;37865;51.304;9.536;2023-07-31T07:18:50;7.57;;;4.32;;
51806;SDS011;37865;51.304;9.536;2023-07-31T07:21:16;5.93;;;3.13;;
51806;SDS011;37865;51.304;9.536;2023-07-31T07:23:42;7.28;;;3.85;;
51806;SDS011;37865;51.304;9.536;2023-07-31T07:26:08;10.32;;;3.65;;
51806;SDS011;37865;51.304;9.536;2023-07-31T07:28:33;7.93;;;3.55;;
51806;SDS011;37865;51.304;9.536;2023-07-31T07:30:58;6.43;;;3.33;;
51806;SDS011;37865;51.304;9.536;2023-07-31T07:33:24;8.05;;;3.47;;
51806;SDS011;37865;51.304;9.536;2023-07-31T07:35:49;8.27;;;4.55;;
51806;SDS011;37865;51.304;9.536;2023-07-31T07:38:14;8.70;;;4.82;;
51806;SDS011;37865;51.304;9.536;2023-07-31T07:40:40;5.63;;;2.88;;
51806;SDS011;37865;51.304;9.536;2023-07-31T07:43:06;5.35;;;3.28;;
51806;SDS011;37865;51.304;9.536;2023-07-31T07:45:31;4.70;;;2.92;;
51806;SDS011;37865;51.304;9.536;2023-07-31T07:47:57;10.60;;;3.20;;
51806;SDS011;37865;51.304;9.536;2023-07-31T07:50:22;6.32;;;3.83;;
51806;SDS011;37865;51.304;9.536;2023-07-31T07:52:48;5.07;;;3.20;;
51806;SDS011;37865;51.304;9.536;2023-07-31T07:55:13;11.65;;;3.80;;
51806;SDS011;37865;51.304;9.536;2023-07-31T07:57:38;6.85;;;3.78;;
51806;SDS011;37865;51.304;9.536;2023-07-31T08:00:04;5.90;;;3.50;;
51806;SDS011;37865;51.304;9.536;2023-07-31T08:02:30;5.18;;;3.08;;
51806;SDS011;37865;51.304;9.536;2023-07-31T08:04:56;6.88;;;3.38;;
51806;SDS011;37865;51.304;9.536;2023-07-31T08:07:21;6.90;;;3.08;;
51806;SDS011;37865;51.304;9.536;2023-07-31T08:09:46;8.70;;;3.53;;
51806;SDS011;37865;51.304;9.536;2023-07-31T08:12:11;9.80;;;3.47;;
51806;SDS011;37865;51.304;9.536;2023-07-31T08:14:37;8.75;;;3.50;;
51806;SDS011;37865;51.304;9.536;2023-07-31T08:17:02;6.50;;;2.88;;
51806;SDS011;37865;51.304;9.536;2023-07-31T08:19:28;3.33;;;2.28;;
51806;SDS011;37865;51.304;9.536;2023-07-31T08:21:53;4.78;;;3.03;;
51806;SDS011;37865;51.304;9.536;2023-07-31T08:24:18;6.15;;;3.08;;
51806;SDS011;37865;51.304;9.536;2023-07-31T08:26:44;4.75;;;2.45;;
51806;SDS011;37865;51.304;9.536;2023-07-31T08:29:09;3.20;;;2.80;;
51806;SDS011;37865;51.304;9.536;2023-07-31T08:31:34;6.40;;;2.70;;
51806;SDS011;37865;51.304;9.536;2023-07-31T08:34:00;5.30;;;3.92;;
51806;SDS011;37865;51.304;9.536;2023-07-31T08:36:25;5.63;;;2.78;;
51806;SDS011;37865;51.304;9.536;2023-07-31T08:38:50;6.80;;;1.92;;
51806;SDS011;37865;51.304;9.536;2023-07-31T08:41:16;6.15;;;2.90;;
51806;SDS011;37865;51.304;9.536;2023-07-31T08:43:46;6.00;;;2.63;;
51806;SDS011;37865;51.304;9.536;2023-07-31T08:46:14;8.68;;;3.53;;
51806;SDS011;37865;51.304;9.536;2023-07-31T08:48:41;4.15;;;2.65;;
51806;SDS011;37865;51.304;9.536;2023-07-31T08:51:08;5.30;;;3.45;;
51806;SDS011;37865;51.304;9.536;2023-07-31T08:53:34;5.65;;;3.00;;
51806;SDS011;37865;51.304;9.536;2023-07-31T08:56:00;5.57;;;2.95;;
51806;SDS011;37865;51.304;9.536;2023-07-31T08:58:27;5.28;;;3.63;;
51806;SDS011;37865;51.304;9.536;2023-07-31T09:00:53;5.28;;;2.92;;
51806;SDS011;37865;51.304;9.536;2023-07-31T09:03:20;8.25;;;3.97;;
51806;SDS011;37865;51.304;9.536;2023-07-31T09:05:47;5.15;;;3.00;;
51806;SDS011;37865;51.304;9.536;2023-07-31T09:08:14;3.35;;;2.67;;
51806;SDS011;37865;51.304;9.536;2023-07-31T09:10:42;4.53;;;3.08;;
51806;SDS011;37865;51.304;9.536;2023-07-31T09:13:09;8.27;;;3.83;;
51806;SDS011;37865;51.304;9.536;2023-07-31T09:15:35;5.45;;;3.10;;
51806;SDS011;37865;51.304;9.536;2023-07-31T09:18:02;5.45;;;2.65;;
51806;SDS011;37865;51.304;9.536;2023-07-31T09:20:28;4.43;;;2.30;;
51806;SDS011;37865;51.304;9.536;2023-07-31T09:22:53;6.30;;;3.22;;
51806;SDS011;37865;51.304;9.536;2023-07-31T09:25:21;12.88;;;3.50;;
51806;SDS011;37865;51.304;9.536;2023-07-31T09:30:16;8.48;;;3.75;;
51806;SDS011;37865;51.304;9.536;2023-07-31T09:32:43;9.23;;;3.83;;
51806;SDS011;37865;51.304;9.536;2023-07-31T09:35:22;7.78;;;3.33;;
51806;SDS011;37865;51.304;9.536;2023-07-31T09:37:53;10.10;;;4.47;;
51806;SDS011;37865;51.304;9.536;2023-07-31T09:40:27;10.00;;;3.65;;
51806;SDS011;37865;51.304;9.536;2023-07-31T09:43:00;6.45;;;3.40;;
51806;SDS011;37865;51.304;9.536;2023-07-31T09:45:27;7.25;;;3.35;;
51806;SDS011;37865;51.304;9.536;2023-07-31T09:47:53;10.13;;;4.45;;
51806;SDS011;37865;51.304;9.536;2023-07-31T09:50:20;6.88;;;3.60;;
51806;SDS011;37865;51.304;9.536;2023-07-31T09:52:46;10.18;;;5.05;;
51806;SDS011;37865;51.304;9.536;2023-07-31T09:55:11;8.00;;;3.65;;
51806;SDS011;37865;51.304;9.536;2023-07-31T09:57:38;11.95;;;4.57;;
51806;SDS011;37865;51.304;9.536;2023-07-31T10:00:07;6.93;;;4.07;;
51806;SDS011;37865;51.304;9.536;2023-07-31T10:02:34;8.85;;;4.43;;
51806;SDS011;37865;51.304;9.536;2023-07-31T10:05:02;8.82;;;4.50;;
51806;SDS011;37865;51.304;9.536;2023-07-31T10:07:29;21.40;;;4.55;;
51806;SDS011;37865;51.304;9.536;2023-07-31T10:09:57;6.57;;;3.97;;
51806;SDS011;37865;51.304;9.536;2023-07-31T10:12:25;13.15;;;4.63;;
51806;SDS011;37865;51.304;9.536;2023-07-31T10:14:55;6.07;;;4.32;;
51806;SDS011;37865;51.304;9.536;2023-07-31T10:17:21;6.50;;;3.80;;
51806;SDS011;37865;51.304;9.536;2023-07-31T10:19:48;11.18;;;5.05;;
51806;SDS011;37865;51.304;9.536;2023-07-31T10:22:14;2.80;;;2.33;;
51806;SDS011;37865;51.304;9.536;2023-07-31T10:24:41;5.40;;;3.80;;
51806;SDS011;37865;51.304;9.536;2023-07-31T10:27:08;5.47;;;3.67;;
51806;SDS011;37865;51.304;9.536;2023-07-31T10:29:34;7.32;;;5.00;;
51806;SDS011;37865;51.304;9.536;2023-07-31T10:32:01;7.72;;;3.90;;
51806;SDS011;37865;51.304;9.536;2023-07-31T10:34:27;16.60;;;3.95;;
51806;SDS011;37865;51.304;9.536;2023-07-31T10:37:19;7.50;;;3.72;;
51806;SDS011;37865;51.304;9.536;2023-07-31T10:45:50;9.55;;;5.65;;
51806;SDS011;37865;51.304;9.536;2023-07-31T10:48:15;6.68;;;4.22;;
51806;SDS011;37865;51.304;9.536;2023-07-31T10:50:48;13.40;;;3.92;;
51806;SDS011;37865;51.304;9.536;2023-07-31T10:53:22;9.52;;;3.80;;
51806;SDS011;37865;51.304;9.536;2023-07-31T10:55:51;5.65;;;3.22;;
51806;SDS011;37865;51.304;9.536;2023-07-31T10:58:18;9.32;;;3.88;;
51806;SDS011;37865;51.304;9.536;2023-07-31T11:00:45;7.30;;;4.40;;
51806;SDS011;37865;51.304;9.536;2023-07-31T11:03:13;8.85;;;3.28;;
51806;SDS011;37865;51.304;9.536;2023-07-31T11:05:40;7.75;;;4.22;;
51806;SDS011;37865;51.304;9.536;2023-07-31T11:08:21;6.53;;;3.95;;
51806;SDS011;37865;51.304;9.536;2023-07-31T11:10:47;15.73;;;4.82;;
51806;SDS011;37865;51.304;9.536;2023-07-31T11:13:14;6.72;;;3.17;;
51806;SDS011;37865;51.304;9.536;2023-07-31T11:15:40;9.70;;;3.97;;
51806;SDS011;37865;51.304;9.536;2023-07-31T11:18:05;7.50;;;4.20;;
51806;SDS011;37865;51.304;9.536;2023-07-31T11:20:33;5.50;;;2.97;;
51806;SDS011;37865;51.304;9.536;2023-07-31T11:23:02;4.50;;;3.08;;
51806;SDS011;37865;51.304;9.536;2023-07-31T11:25:29;6.57;;;3.65;;
51806;SDS011;37865;51.304;9.536;2023-07-31T11:28:02;4.15;;;3.47;;
51806;SDS011;37865;51.304;9.536;2023-07-31T11:30:31;6.97;;;4.03;;
51806;SDS011;37865;51.304;9.536;2023-07-31T11:32:57;6.15;;;3.58;;
51806;SDS011;37865;51.304;9.536;2023-07-31T11:35:23;6.22;;;2.45;;
51806;SDS011;37865;51.304;9.536;2023-07-31T11:37:48;3.33;;;1.98;;
51806;SDS011;37865;51.304;9.536;2023-07-31T11:40:14;8.05;;;3.08;;
51806;SDS011;37865;51.304;9.536;2023-07-31T11:42:40;4.07;;;2.60;;
51806;SDS011;37865;51.304;9.536;2023-07-31T11:45:06;7.93;;;2.78;;
51806;SDS011;37865;51.304;9.536;2023-07-31T11:47:35;4.78;;;2.30;;
51806;SDS011;37865;51.304;9.536;2023-07-31T11:50:02;3.88;;;2.63;;
51806;SDS011;37865;51.304;9.536;2023-07-31T11:52:30;4.90;;;2.25;;
51806;SDS011;37865;51.304;9.536;2023-07-31T11:55:03;4.57;;;1.83;;
51806;SDS011;37865;51.304;9.536;2023-07-31T11:57:29;2.10;;;1.90;;
51806;SDS011;37865;51.304;9.536;2023-07-31T11:59:55;4.78;;;2.75;;
51806;SDS011;37865;51.304;9.536;2023-07-31T12:02:21;4.53;;;2.42;;
51806;SDS011;37865;51.304;9.536;2023-07-31T12:04:47;6.65;;;3.22;;
51806;SDS011;37865;51.304;9.536;2023-07-31T12:07:13;3.90;;;2.58;;
51806;SDS011;37865;51.304;9.536;2023-07-31T12:09:38;3.47;;;2.60;;
51806;SDS011;37865;51.304;9.536;2023-07-31T12:12:18;4.80;;;3.15;;
51806;SDS011;37865;51.304;9.536;2023-07-31T12:14:45;4.43;;;2.88;;
51806;SDS011;37865;51.304;9.536;2023-07-31T12:17:11;7.95;;;2.65;;
51806;SDS011;37865;51.304;9.536;2023-07-31T12:19:36;6.68;;;3.17;;
51806;SDS011;37865;51.304;9.536;2023-07-31T12:22:10;4.82;;;2.78;;
51806;SDS011;37865;51.304;9.536;2023-07-31T12:27:08;5.22;;;2.97;;
51806;SDS011;37865;51.304;9.536;2023-07-31T12:29:34;4.95;;;3.13;;
51806;SDS011;37865;51.304;9.536;2023-07-31T12:32:03;2.53;;;1.85;;
51806;SDS011;37865;51.304;9.536;2023-07-31T12:34:29;6.22;;;3.58;;
51806;SDS011;37865;51.304;9.536;2023-07-31T12:36:54;5.65;;;2.35;;
51806;SDS011;37865;51.304;9.536;2023-07-31T12:39:19;6.82;;;2.95;;
51806;SDS011;37865;51.304;9.536;2023-07-31T12:41:45;5.47;;;3.33;;
51806;SDS011;37865;51.304;9.536;2023-07-31T12:44:10;5.45;;;3.47;;
51806;SDS011;37865;51.304;9.536;2023-07-31T12:46:36;8.52;;;3.88;;
51806;SDS011;37865;51.304;9.536;2023-07-31T12:49:01;6.32;;;3.20;;
51806;SDS011;37865;51.304;9.536;2023-07-31T12:51:27;9.88;;;4.03;;
51806;SDS011;37865;51.304;9.536;2023-07-31T12:53:52;5.20;;;2.90;;
51806;SDS011;37865;51.304;9.536;2023-07-31T12:56:18;12.30;;;4.03;;
51806;SDS011;37865;51.304;9.536;2023-07-31T12:58:43;6.60;;;3.67;;
51806;SDS011;37865;51.304;9.536;2023-07-31T13:01:08;5.95;;;3.83;;
51806;SDS011;37865;51.304;9.536;2023-07-31T13:03:34;6.07;;;4.22;;
51806;SDS011;37865;51.304;9.536;2023-07-31T13:05:59;4.45;;;3.03;;
51806;SDS011;37865;51.304;9.536;2023-07-31T13:08:24;8.93;;;3.15;;
51806;SDS011;37865;51.304;9.536;2023-07-31T13:10:50;6.30;;;3.25;;
51806;SDS011;37865;51.304;9.536;2023-07-31T13:13:15;6.05;;;3.03;;
51806;SDS011;37865;51.304;9.536;2023-07-31T13:15:40;10.27;;;3.45;;
51806;SDS011;37865;51.304;9.536;2023-07-31T13:18:06;6.10;;;2.80;;
51806;SDS011;37865;51.304;9.536;2023-07-31T13:20:31;4.50;;;3.20;;
51806;SDS011;37865;51.304;9.536;2023-07-31T13:22:56;9.98;;;3.80;;
51806;SDS011;37865;51.304;9.536;2023-07-31T13:25:22;8.13;;;2.33;;
51806;SDS011;37865;51.304;9.536;2023-07-31T13:27:47;3.45;;;2.38;;
51806;SDS011;37865;51.304;9.536;2023-07-31T13:30:12;5.90;;;2.90;;
51806;SDS011;37865;51.304;9.536;2023-07-31T13:32:38;6.75;;;3.13;;
51806;SDS011;37865;51.304;9.536;2023-07-31T13:35:04;4.18;;;2.42;;
51806;SDS011;37865;51.304;9.536;2023-07-31T13:37:30;6.18;;;2.83;;
51806;SDS011;37865;51.304;9.536;2023-07-31T13:39:56;7.30;;;3.83;;
51806;SDS011;37865;51.304;9.536;2023-07-31T13:42:21;3.60;;;3.10;;
51806;SDS011;37865;51.304;9.536;2023-07-31T13:44:47;10.05;;;2.88;;
51806;SDS011;37865;51.304;9.536;2023-07-31T13:47:12;8.50;;;3.83;;
51806;SDS011;37865;51.304;9.536;2023-07-31T13:49:37;4.65;;;2.42;;
51806;SDS011;37865;51.304;9.536;2023-07-31T13:52:04;8.55;;;3.85;;
51806;SDS011;37865;51.304;9.536;2023-07-31T13:54:29;6.57;;;2.95;;
51806;SDS011;37865;51.304;9.536;2023-07-31T13:56:54;6.43;;;3.42;;
51806;SDS011;37865;51.304;9.536;2023-07-31T13:59:20;3.92;;;2.70;;
51806;SDS011;37865;51.304;9.536;2023-07-31T14:01:46;8.32;;;3.38;;
51806;SDS011;37865;51.304;9.536;2023-07-31T14:04:12;6.60;;;3.20;;
51806;SDS011;37865;51.304;9.536;2023-07-31T14:06:37;7.18;;;2.67;;
51806;SDS011;37865;51.304;9.536;2023-07-31T14:09:03;6.53;;;3.13;;
51806;SDS011;37865;51.304;9.536;2023-07-31T14:11:28;5.50;;;2.90;;
51806;SDS011;37865;51.304;9.536;2023-07-31T14:13:55;3.22;;;2.53;;
51806;SDS011;37865;51.304;9.536;2023-07-31T14:16:21;5.68;;;3.38;;
51806;SDS011;37865;51.304;9.536;2023-07-31T14:18:47;4.60;;;2.97;;
51806;SDS011;37865;51.304;9.536;2023-07-31T14:21:12;3.78;;;2.22;;
51806;SDS011;37865;51.304;9.536;2023-07-31T14:23:37;2.65;;;2.35;;
51806;SDS011;37865;51.304;9.536;2023-07-31T14:26:03;7.15;;;3.33;;
51806;SDS011;37865;51.304;9.536;2023-07-31T14:28:28;1.58;;;1.48;;
51806;SDS011;37865;51.304;9.536;2023-07-31T14:30:55;7.93;;;2.00;;
51806;SDS011;37865;51.304;9.536;2023-07-31T14:33:20;5.68;;;2.40;;
51806;SDS011;37865;51.304;9.536;2023-07-31T14:35:45;2.38;;;1.63;;
51806;SDS011;37865;51.304;9.536;2023-07-31T14:38:10;7.13;;;1.92;;
51806;SDS011;37865;51.304;9.536;2023-07-31T14:40:36;3.80;;;2.55;;
51806;SDS011;37865;51.304;9.536;2023-07-31T14:43:03;4.65;;;2.33;;
51806;SDS011;37865;51.304;9.536;2023-07-31T14:45:28;1.77;;;1.67;;
51806;SDS011;37865;51.304;9.536;2023-07-31T14:47:54;2.88;;;1.90;;
51806;SDS011;37865;51.304;9.536;2023-07-31T14:50:20;3.92;;;1.80;;
51806;SDS011;37865;51.304;9.536;2023-07-31T14:52:46;3.08;;;1.77;;
51806;SDS011;37865;51.304;9.536;2023-07-31T14:55:11;8.82;;;2.65;;
51806;SDS011;37865;51.304;9.536;2023-07-31T14:57:36;2.92;;;2.28;;
51806;SDS011;37865;51.304;9.536;2023-07-31T15:00:02;2.60;;;1.77;;